sensor_id;sensor_type;location;lat;lon;timestamp;P1;durP1;ratioP1;P2;durP2;ratioP2
34741;SDS011;20968;42.696;23.360;2023-01-31T00:01:33;40.65;;;17.75;;
34741;SDS011;20968;42.696;23.360;2023-01-31T00:04:02;41.42;;;18.67;;
34741;SDS011;20968;42.696;23.360;2023-01-31T00:06:31;48.00;;;17.25;;
34741;SDS011;20968;42.696;23.360;2023-01-31T00:08:59;30.92;;;13.55;;
34741;SDS011;20968;42.696;23.360;2023-01-31T00:11:29;39.45;;;14.88;;
34741;SDS011;20968;42.696;23.360;2023-01-31T00:13:56;31.52;;;12.30;;
34741;SDS011;20968;42.696;23.360;2023-01-31T00:16:25;45.47;;;17.02;;
34741;SDS011;20968;42.696;23.360;2023-01-31T00:18:52;50.95;;;20.50;;
34741;SDS011;20968;42.696;23.360;2023-01-31T00:21:22;47.95;;;17.77;;
34741;SDS011;20968;42.696;23.360;2023-01-31T00:23:49;40.25;;;16.17;;
34741;SDS011;20968;42.696;23.360;2023-01-31T00:26:17;45.00;;;17.40;;
34741;SDS011;20968;42.696;23.360;2023-01-31T00:28:47;36.88;;;15.85;;
34741;SDS011;20968;42.696;23.360;2023-01-31T00:31:17;39.30;;;16.75;;
34741;SDS011;20968;42.696;23.360;2023-01-31T00:33:44;29.52;;;13.18;;
34741;SDS011;20968;42.696;23.360;2023-01-31T00:36:12;36.22;;;14.70;;
34741;SDS011;20968;42.696;23.360;2023-01-31T00:38:42;33.47;;;15.45;;
34741;SDS011;20968;42.696;23.360;2023-01-31T00:41:09;38.13;;;15.68;;
34741;SDS011;20968;42.696;23.360;2023-01-31T00:43:36;43.33;;;17.27;;
34741;SDS011;20968;42.696;23.360;2023-01-31T00:46:01;38.88;;;15.52;;
34741;SDS011;20968;42.696;23.360;2023-01-31T00:48:28;49.50;;;21.15;;
34741;SDS011;20968;42.696;23.360;2023-01-31T00:50:54;57.22;;;22.85;;
34741;SDS011;20968;42.696;23.360;2023-01-31T00:53:19;36.13;;;14.57;;
34741;SDS011;20968;42.696;23.360;2023-01-31T00:55:51;43.28;;;18.42;;
34741;SDS011;20968;42.696;23.360;2023-01-31T00:58:19;32.42;;;13.65;;
34741;SDS011;20968;42.696;23.360;2023-01-31T01:00:45;58.28;;;19.63;;
34741;SDS011;20968;42.696;23.360;2023-01-31T01:03:12;34.10;;;14.93;;
34741;SDS011;20968;42.696;23.360;2023-01-31T01:05:39;44.90;;;17.85;;
34741;SDS011;20968;42.696;23.360;2023-01-31T01:08:04;35.92;;;14.75;;
34741;SDS011;20968;42.696;23.360;2023-01-31T01:10:30;56.03;;;22.92;;
34741;SDS011;20968;42.696;23.360;2023-01-31T01:12:56;31.98;;;14.57;;
34741;SDS011;20968;42.696;23.360;2023-01-31T01:15:21;44.80;;;18.00;;
34741;SDS011;20968;42.696;23.360;2023-01-31T01:17:47;47.10;;;17.05;;
34741;SDS011;20968;42.696;23.360;2023-01-31T01:20:12;32.03;;;13.10;;
34741;SDS011;20968;42.696;23.360;2023-01-31T01:22:38;31.67;;;12.73;;
34741;SDS011;20968;42.696;23.360;2023-01-31T01:25:04;26.58;;;11.88;;
34741;SDS011;20968;42.696;23.360;2023-01-31T01:27:30;34.50;;;13.43;;
34741;SDS011;20968;42.696;23.360;2023-01-31T01:29:56;32.78;;;13.20;;
34741;SDS011;20968;42.696;23.360;2023-01-31T01:32:23;46.35;;;17.25;;
34741;SDS011;20968;42.696;23.360;2023-01-31T01:34:49;32.67;;;11.57;;
34741;SDS011;20968;42.696;23.360;2023-01-31T01:37:14;45.83;;;16.25;;
34741;SDS011;20968;42.696;23.360;2023-01-31T01:39:45;37.88;;;13.60;;
34741;SDS011;20968;42.696;23.360;2023-01-31T01:42:16;48.90;;;18.30;;
34741;SDS011;20968;42.696;23.360;2023-01-31T01:47:30;52.30;;;16.42;;
34741;SDS011;20968;42.696;23.360;2023-01-31T01:50:22;52.42;;;15.65;;
34741;SDS011;20968;42.696;23.360;2023-01-31T01:58:10;25.52;;;11.23;;
34741;SDS011;20968;42.696;23.360;2023-01-31T02:00:41;47.30;;;17.40;;
34741;SDS011;20968;42.696;23.360;2023-01-31T02:03:10;24.92;;;10.98;;
34741;SDS011;20968;42.696;23.360;2023-01-31T02:05:41;39.90;;;12.68;;
34741;SDS011;20968;42.696;23.360;2023-01-31T02:08:14;41.20;;;13.15;;
34741;SDS011;20968;42.696;23.360;2023-01-31T02:10:47;25.25;;;10.38;;
34741;SDS011;20968;42.696;23.360;2023-01-31T02:13:16;26.48;;;10.85;;
34741;SDS011;20968;42.696;23.360;2023-01-31T02:15:43;37.75;;;13.88;;
34741;SDS011;20968;42.696;23.360;2023-01-31T02:18:09;43.28;;;14.90;;
34741;SDS011;20968;42.696;23.360;2023-01-31T02:43:07;44.67;;;17.40;;
34741;SDS011;20968;42.696;23.360;2023-01-31T02:45:57;23.25;;;9.55;;
34741;SDS011;20968;42.696;23.360;2023-01-31T02:53:32;33.05;;;13.52;;
34741;SDS011;20968;42.696;23.360;2023-01-31T02:56:19;49.17;;;14.80;;
34741;SDS011;20968;42.696;23.360;2023-01-31T02:59:06;46.47;;;15.07;;
34741;SDS011;20968;42.696;23.360;2023-01-31T03:01:45;22.55;;;10.25;;
34741;SDS011;20968;42.696;23.360;2023-01-31T03:04:14;36.78;;;15.57;;
34741;SDS011;20968;42.696;23.360;2023-01-31T03:06:51;35.45;;;13.43;;
34741;SDS011;20968;42.696;23.360;2023-01-31T03:09:35;36.35;;;14.15;;
34741;SDS011;20968;42.696;23.360;2023-01-31T03:12:21;20.65;;;10.13;;
34741;SDS011;20968;42.696;23.360;2023-01-31T03:18:19;22.00;;;9.15;;
34741;SDS011;20968;42.696;23.360;2023-01-31T03:20:52;31.42;;;14.23;;
34741;SDS011;20968;42.696;23.360;2023-01-31T03:23:25;40.15;;;14.43;;
34741;SDS011;20968;42.696;23.360;2023-01-31T03:25:55;35.92;;;14.70;;
34741;SDS011;20968;42.696;23.360;2023-01-31T03:28:28;27.77;;;11.07;;
34741;SDS011;20968;42.696;23.360;2023-01-31T03:33:37;31.70;;;14.25;;
34741;SDS011;20968;42.696;23.360;2023-01-31T03:38:42;34.10;;;15.20;;
34741;SDS011;20968;42.696;23.360;2023-01-31T03:43:56;25.80;;;11.82;;
34741;SDS011;20968;42.696;23.360;2023-01-31T03:46:35;56.50;;;19.95;;
34741;SDS011;20968;42.696;23.360;2023-01-31T03:49:05;30.55;;;12.88;;
34741;SDS011;20968;42.696;23.360;2023-01-31T03:51:34;24.15;;;11.02;;
34741;SDS011;20968;42.696;23.360;2023-01-31T03:54:04;32.15;;;12.88;;
34741;SDS011;20968;42.696;23.360;2023-01-31T03:59:50;31.23;;;13.07;;
34741;SDS011;20968;42.696;23.360;2023-01-31T04:02:22;38.85;;;14.90;;
34741;SDS011;20968;42.696;23.360;2023-01-31T04:04:54;29.88;;;11.65;;
34741;SDS011;20968;42.696;23.360;2023-01-31T04:07:24;31.20;;;12.50;;
34741;SDS011;20968;42.696;23.360;2023-01-31T04:09:49;37.17;;;14.65;;
34741;SDS011;20968;42.696;23.360;2023-01-31T04:12:15;45.33;;;16.60;;
34741;SDS011;20968;42.696;23.360;2023-01-31T04:14:47;31.08;;;11.43;;
34741;SDS011;20968;42.696;23.360;2023-01-31T04:17:12;24.10;;;10.73;;
34741;SDS011;20968;42.696;23.360;2023-01-31T04:19:45;34.85;;;15.43;;
34741;SDS011;20968;42.696;23.360;2023-01-31T04:22:10;40.90;;;13.82;;
34741;SDS011;20968;42.696;23.360;2023-01-31T04:24:36;25.52;;;11.27;;
34741;SDS011;20968;42.696;23.360;2023-01-31T04:27:02;37.13;;;14.48;;
34741;SDS011;20968;42.696;23.360;2023-01-31T04:29:27;22.38;;;11.15;;
34741;SDS011;20968;42.696;23.360;2023-01-31T04:31:53;29.50;;;12.40;;
34741;SDS011;20968;42.696;23.360;2023-01-31T04:34:18;27.88;;;11.13;;
34741;SDS011;20968;42.696;23.360;2023-01-31T04:36:43;24.27;;;10.68;;
34741;SDS011;20968;42.696;23.360;2023-01-31T04:39:09;22.15;;;10.15;;
34741;SDS011;20968;42.696;23.360;2023-01-31T04:41:35;21.70;;;10.77;;
34741;SDS011;20968;42.696;23.360;2023-01-31T04:44:00;22.02;;;8.63;;
34741;SDS011;20968;42.696;23.360;2023-01-31T04:46:26;27.38;;;11.48;;
34741;SDS011;20968;42.696;23.360;2023-01-31T04:48:51;22.92;;;10.25;;
34741;SDS011;20968;42.696;23.360;2023-01-31T04:51:17;27.27;;;12.25;;
34741;SDS011;20968;42.696;23.360;2023-01-31T04:53:42;27.67;;;10.77;;
34741;SDS011;20968;42.696;23.360;2023-01-31T04:56:09;45.13;;;18.52;;
34741;SDS011;20968;42.696;23.360;2023-01-31T04:58:35;162.15;;;47.47;;
34741;SDS011;20968;42.696;23.360;2023-01-31T05:01:00;120.50;;;36.05;;
34741;SDS011;20968;42.696;23.360;2023-01-31T05:03:26;58.50;;;22.60;;
34741;SDS011;20968;42.696;23.360;2023-01-31T05:05:51;29.85;;;12.07;;
34741;SDS011;20968;42.696;23.360;2023-01-31T05:08:16;27.20;;;10.98;;
34741;SDS011;20968;42.696;23.360;2023-01-31T05:10:42;37.45;;;14.48;;
34741;SDS011;20968;42.696;23.360;2023-01-31T05:13:08;58.50;;;25.63;;
34741;SDS011;20968;42.696;23.360;2023-01-31T05:15:34;42.85;;;19.38;;
34741;SDS011;20968;42.696;23.360;2023-01-31T05:18:00;32.28;;;14.00;;
34741;SDS011;20968;42.696;23.360;2023-01-31T05:20:29;32.58;;;14.70;;
34741;SDS011;20968;42.696;23.360;2023-01-31T05:23:01;31.00;;;13.80;;
34741;SDS011;20968;42.696;23.360;2023-01-31T05:25:27;33.13;;;14.88;;
34741;SDS011;20968;42.696;23.360;2023-01-31T05:27:52;30.50;;;12.48;;
34741;SDS011;20968;42.696;23.360;2023-01-31T05:30:19;24.80;;;11.95;;
34741;SDS011;20968;42.696;23.360;2023-01-31T05:32:47;33.08;;;12.20;;
34741;SDS011;20968;42.696;23.360;2023-01-31T05:35:13;24.00;;;10.15;;
34741;SDS011;20968;42.696;23.360;2023-01-31T05:37:39;21.33;;;9.93;;
34741;SDS011;20968;42.696;23.360;2023-01-31T05:40:10;41.53;;;16.67;;
34741;SDS011;20968;42.696;23.360;2023-01-31T05:42:36;22.10;;;11.10;;
34741;SDS011;20968;42.696;23.360;2023-01-31T05:45:02;30.38;;;13.48;;
34741;SDS011;20968;42.696;23.360;2023-01-31T05:47:29;39.28;;;16.05;;
34741;SDS011;20968;42.696;23.360;2023-01-31T05:49:55;31.92;;;13.55;;
34741;SDS011;20968;42.696;23.360;2023-01-31T05:52:20;26.67;;;11.13;;
34741;SDS011;20968;42.696;23.360;2023-01-31T05:54:45;22.25;;;9.52;;
34741;SDS011;20968;42.696;23.360;2023-01-31T05:57:11;26.13;;;10.60;;
34741;SDS011;20968;42.696;23.360;2023-01-31T05:59:38;23.15;;;9.90;;
34741;SDS011;20968;42.696;23.360;2023-01-31T06:02:06;24.13;;;11.15;;
34741;SDS011;20968;42.696;23.360;2023-01-31T06:04:35;38.25;;;15.55;;
34741;SDS011;20968;42.696;23.360;2023-01-31T06:07:02;29.95;;;11.80;;
34741;SDS011;20968;42.696;23.360;2023-01-31T06:09:28;45.83;;;20.65;;
34741;SDS011;20968;42.696;23.360;2023-01-31T06:11:53;25.35;;;12.18;;
34741;SDS011;20968;42.696;23.360;2023-01-31T06:14:19;18.85;;;9.15;;
34741;SDS011;20968;42.696;23.360;2023-01-31T06:16:44;18.10;;;8.88;;
34741;SDS011;20968;42.696;23.360;2023-01-31T06:19:10;25.27;;;11.82;;
34741;SDS011;20968;42.696;23.360;2023-01-31T06:21:35;22.45;;;10.63;;
34741;SDS011;20968;42.696;23.360;2023-01-31T06:24:02;22.67;;;10.18;;
34741;SDS011;20968;42.696;23.360;2023-01-31T06:26:28;22.77;;;10.52;;
34741;SDS011;20968;42.696;23.360;2023-01-31T06:28:54;37.95;;;14.32;;
34741;SDS011;20968;42.696;23.360;2023-01-31T06:31:21;29.05;;;12.00;;
34741;SDS011;20968;42.696;23.360;2023-01-31T06:33:50;24.48;;;10.35;;
34741;SDS011;20968;42.696;23.360;2023-01-31T06:36:16;18.83;;;9.40;;
34741;SDS011;20968;42.696;23.360;2023-01-31T06:38:41;37.67;;;15.32;;
34741;SDS011;20968;42.696;23.360;2023-01-31T06:41:07;55.58;;;21.88;;
34741;SDS011;20968;42.696;23.360;2023-01-31T06:43:34;71.30;;;30.42;;
34741;SDS011;20968;42.696;23.360;2023-01-31T06:45:59;43.80;;;22.25;;
34741;SDS011;20968;42.696;23.360;2023-01-31T06:48:25;27.55;;;14.20;;
34741;SDS011;20968;42.696;23.360;2023-01-31T06:50:50;24.55;;;12.73;;
34741;SDS011;20968;42.696;23.360;2023-01-31T06:53:17;28.85;;;12.23;;
34741;SDS011;20968;42.696;23.360;2023-01-31T06:55:45;19.42;;;10.32;;
34741;SDS011;20968;42.696;23.360;2023-01-31T06:58:14;53.97;;;20.35;;
34741;SDS011;20968;42.696;23.360;2023-01-31T07:00:39;25.52;;;13.30;;
34741;SDS011;20968;42.696;23.360;2023-01-31T07:03:05;33.33;;;18.75;;
34741;SDS011;20968;42.696;23.360;2023-01-31T07:05:30;21.95;;;10.32;;
34741;SDS011;20968;42.696;23.360;2023-01-31T07:07:55;21.17;;;11.00;;
34741;SDS011;20968;42.696;23.360;2023-01-31T07:10:22;19.92;;;10.23;;
34741;SDS011;20968;42.696;23.360;2023-01-31T07:12:47;21.23;;;8.95;;
34741;SDS011;20968;42.696;23.360;2023-01-31T07:15:12;17.42;;;7.88;;
34741;SDS011;20968;42.696;23.360;2023-01-31T07:17:38;21.33;;;9.75;;
34741;SDS011;20968;42.696;23.360;2023-01-31T07:20:04;17.90;;;9.27;;
34741;SDS011;20968;42.696;23.360;2023-01-31T07:22:31;17.17;;;8.93;;
34741;SDS011;20968;42.696;23.360;2023-01-31T07:24:58;38.33;;;14.02;;
34741;SDS011;20968;42.696;23.360;2023-01-31T07:27:24;30.20;;;12.07;;
34741;SDS011;20968;42.696;23.360;2023-01-31T07:29:49;30.42;;;12.13;;
34741;SDS011;20968;42.696;23.360;2023-01-31T07:32:15;39.25;;;16.75;;
34741;SDS011;20968;42.696;23.360;2023-01-31T07:34:40;34.72;;;14.30;;
34741;SDS011;20968;42.696;23.360;2023-01-31T07:37:06;22.10;;;9.30;;
34741;SDS011;20968;42.696;23.360;2023-01-31T07:39:33;23.90;;;12.13;;
34741;SDS011;20968;42.696;23.360;2023-01-31T07:42:22;51.90;;;19.75;;
34741;SDS011;20968;42.696;23.360;2023-01-31T07:44:50;60.05;;;26.05;;
34741;SDS011;20968;42.696;23.360;2023-01-31T07:47:15;67.88;;;28.50;;
34741;SDS011;20968;42.696;23.360;2023-01-31T07:50:01;76.72;;;31.88;;
34741;SDS011;20968;42.696;23.360;2023-01-31T07:52:27;55.42;;;21.75;;
34741;SDS011;20968;42.696;23.360;2023-01-31T07:54:55;54.70;;;23.88;;
34741;SDS011;20968;42.696;23.360;2023-01-31T07:57:21;48.03;;;18.63;;
34741;SDS011;20968;42.696;23.360;2023-01-31T07:59:47;32.70;;;13.13;;
34741;SDS011;20968;42.696;23.360;2023-01-31T08:02:14;38.90;;;15.95;;
34741;SDS011;20968;42.696;23.360;2023-01-31T08:05:02;25.83;;;12.65;;
34741;SDS011;20968;42.696;23.360;2023-01-31T08:07:32;24.10;;;9.25;;
34741;SDS011;20968;42.696;23.360;2023-01-31T08:10:00;35.08;;;12.23;;
34741;SDS011;20968;42.696;23.360;2023-01-31T08:12:26;25.15;;;11.23;;
34741;SDS011;20968;42.696;23.360;2023-01-31T08:14:51;35.30;;;16.15;;
34741;SDS011;20968;42.696;23.360;2023-01-31T08:17:17;33.85;;;15.48;;
34741;SDS011;20968;42.696;23.360;2023-01-31T08:19:46;26.38;;;14.23;;
34741;SDS011;20968;42.696;23.360;2023-01-31T08:22:29;21.77;;;10.55;;
34741;SDS011;20968;42.696;23.360;2023-01-31T08:24:56;26.27;;;11.52;;
34741;SDS011;20968;42.696;23.360;2023-01-31T08:27:30;33.67;;;14.27;;
34741;SDS011;20968;42.696;23.360;2023-01-31T08:30:02;20.63;;;11.50;;
34741;SDS011;20968;42.696;23.360;2023-01-31T08:32:28;32.97;;;12.52;;
34741;SDS011;20968;42.696;23.360;2023-01-31T08:34:55;25.70;;;12.77;;
34741;SDS011;20968;42.696;23.360;2023-01-31T08:37:23;25.10;;;9.38;;
34741;SDS011;20968;42.696;23.360;2023-01-31T08:39:49;20.80;;;9.57;;
34741;SDS011;20968;42.696;23.360;2023-01-31T08:42:17;27.25;;;10.15;;
34741;SDS011;20968;42.696;23.360;2023-01-31T08:44:42;21.33;;;11.30;;
34741;SDS011;20968;42.696;23.360;2023-01-31T08:47:10;14.85;;;8.15;;
34741;SDS011;20968;42.696;23.360;2023-01-31T08:49:38;14.27;;;8.07;;
34741;SDS011;20968;42.696;23.360;2023-01-31T08:52:05;17.17;;;9.07;;
34741;SDS011;20968;42.696;23.360;2023-01-31T08:54:35;13.25;;;7.53;;
34741;SDS011;20968;42.696;23.360;2023-01-31T08:57:00;19.13;;;8.95;;
34741;SDS011;20968;42.696;23.360;2023-01-31T08:59:26;13.10;;;7.00;;
34741;SDS011;20968;42.696;23.360;2023-01-31T09:01:51;18.02;;;8.10;;
34741;SDS011;20968;42.696;23.360;2023-01-31T09:04:17;16.20;;;7.55;;
34741;SDS011;20968;42.696;23.360;2023-01-31T09:06:42;25.85;;;12.32;;
34741;SDS011;20968;42.696;23.360;2023-01-31T09:09:08;19.63;;;8.15;;
34741;SDS011;20968;42.696;23.360;2023-01-31T09:11:34;17.58;;;7.63;;
34741;SDS011;20968;42.696;23.360;2023-01-31T09:14:00;12.30;;;6.85;;
34741;SDS011;20968;42.696;23.360;2023-01-31T09:16:28;17.00;;;8.52;;
34741;SDS011;20968;42.696;23.360;2023-01-31T09:18:54;19.00;;;7.28;;
34741;SDS011;20968;42.696;23.360;2023-01-31T09:21:23;26.30;;;6.65;;
34741;SDS011;20968;42.696;23.360;2023-01-31T09:23:53;17.20;;;6.97;;
34741;SDS011;20968;42.696;23.360;2023-01-31T09:26:22;21.70;;;7.10;;
34741;SDS011;20968;42.696;23.360;2023-01-31T09:28:49;30.02;;;12.38;;
34741;SDS011;20968;42.696;23.360;2023-01-31T09:31:16;14.55;;;7.72;;
34741;SDS011;20968;42.696;23.360;2023-01-31T09:33:44;19.02;;;8.27;;
34741;SDS011;20968;42.696;23.360;2023-01-31T09:36:11;17.48;;;7.18;;
34741;SDS011;20968;42.696;23.360;2023-01-31T09:39:11;14.30;;;8.55;;
34741;SDS011;20968;42.696;23.360;2023-01-31T09:41:39;23.98;;;9.63;;
34741;SDS011;20968;42.696;23.360;2023-01-31T09:46:45;15.02;;;7.65;;
34741;SDS011;20968;42.696;23.360;2023-01-31T09:49:19;37.92;;;13.60;;
34741;SDS011;20968;42.696;23.360;2023-01-31T09:51:48;19.90;;;7.35;;
34741;SDS011;20968;42.696;23.360;2023-01-31T09:54:25;10.95;;;5.72;;
34741;SDS011;20968;42.696;23.360;2023-01-31T09:56:58;13.07;;;7.50;;
34741;SDS011;20968;42.696;23.360;2023-01-31T09:59:33;12.88;;;6.18;;
34741;SDS011;20968;42.696;23.360;2023-01-31T10:07:59;5.63;;;3.88;;
34741;SDS011;20968;42.696;23.360;2023-01-31T10:10:52;9.07;;;4.68;;
34741;SDS011;20968;42.696;23.360;2023-01-31T10:13:30;8.10;;;5.13;;
34741;SDS011;20968;42.696;23.360;2023-01-31T10:19:00;9.32;;;4.75;;
34741;SDS011;20968;42.696;23.360;2023-01-31T10:21:38;7.47;;;4.30;;
34741;SDS011;20968;42.696;23.360;2023-01-31T10:24:15;8.07;;;4.28;;
34741;SDS011;20968;42.696;23.360;2023-01-31T10:26:47;8.23;;;4.97;;
34741;SDS011;20968;42.696;23.360;2023-01-31T10:29:41;9.55;;;5.65;;
34741;SDS011;20968;42.696;23.360;2023-01-31T10:34:53;13.10;;;6.38;;
34741;SDS011;20968;42.696;23.360;2023-01-31T10:37:29;10.93;;;4.85;;
34741;SDS011;20968;42.696;23.360;2023-01-31T10:40:05;10.70;;;5.30;;
34741;SDS011;20968;42.696;23.360;2023-01-31T10:42:41;8.32;;;4.25;;
34741;SDS011;20968;42.696;23.360;2023-01-31T10:45:18;24.50;;;7.43;;
34741;SDS011;20968;42.696;23.360;2023-01-31T10:50:30;12.50;;;7.22;;
34741;SDS011;20968;42.696;23.360;2023-01-31T10:58:23;8.88;;;4.40;;
34741;SDS011;20968;42.696;23.360;2023-01-31T11:00:49;9.07;;;5.10;;
34741;SDS011;20968;42.696;23.360;2023-01-31T11:03:15;9.45;;;4.50;;
34741;SDS011;20968;42.696;23.360;2023-01-31T11:05:48;17.10;;;7.90;;
34741;SDS011;20968;42.696;23.360;2023-01-31T11:08:30;45.30;;;14.45;;
34741;SDS011;20968;42.696;23.360;2023-01-31T11:11:17;54.45;;;16.90;;
34741;SDS011;20968;42.696;23.360;2023-01-31T11:13:54;19.20;;;7.35;;
34741;SDS011;20968;42.696;23.360;2023-01-31T11:16:24;19.08;;;7.38;;
34741;SDS011;20968;42.696;23.360;2023-01-31T11:18:54;64.20;;;27.20;;
34741;SDS011;20968;42.696;23.360;2023-01-31T11:21:30;6.55;;;4.57;;
34741;SDS011;20968;42.696;23.360;2023-01-31T11:24:02;7.70;;;4.22;;
34741;SDS011;20968;42.696;23.360;2023-01-31T11:26:34;11.43;;;6.57;;
34741;SDS011;20968;42.696;23.360;2023-01-31T11:29:06;9.15;;;4.78;;
34741;SDS011;20968;42.696;23.360;2023-01-31T11:31:40;10.88;;;5.40;;
34741;SDS011;20968;42.696;23.360;2023-01-31T11:34:26;5.90;;;3.95;;
34741;SDS011;20968;42.696;23.360;2023-01-31T11:37:15;6.82;;;4.53;;
34741;SDS011;20968;42.696;23.360;2023-01-31T11:39:45;20.92;;;8.60;;
34741;SDS011;20968;42.696;23.360;2023-01-31T11:42:50;13.40;;;6.18;;
34741;SDS011;20968;42.696;23.360;2023-01-31T11:45:19;8.05;;;4.70;;
34741;SDS011;20968;42.696;23.360;2023-01-31T11:47:54;5.25;;;4.20;;
34741;SDS011;20968;42.696;23.360;2023-01-31T11:50:23;8.02;;;5.30;;
34741;SDS011;20968;42.696;23.360;2023-01-31T11:52:57;11.18;;;6.05;;
34741;SDS011;20968;42.696;23.360;2023-01-31T11:55:35;12.95;;;5.78;;
34741;SDS011;20968;42.696;23.360;2023-01-31T11:58:02;9.43;;;6.05;;
34741;SDS011;20968;42.696;23.360;2023-01-31T12:00:35;23.98;;;12.52;;
34741;SDS011;20968;42.696;23.360;2023-01-31T12:03:04;17.00;;;8.48;;
34741;SDS011;20968;42.696;23.360;2023-01-31T12:08:07;14.02;;;7.28;;
34741;SDS011;20968;42.696;23.360;2023-01-31T12:10:53;13.23;;;7.03;;
34741;SDS011;20968;42.696;23.360;2023-01-31T12:13:19;13.20;;;6.20;;
34741;SDS011;20968;42.696;23.360;2023-01-31T12:15:55;9.40;;;5.40;;
34741;SDS011;20968;42.696;23.360;2023-01-31T12:18:27;13.07;;;6.15;;
34741;SDS011;20968;42.696;23.360;2023-01-31T12:21:12;14.63;;;7.57;;
34741;SDS011;20968;42.696;23.360;2023-01-31T12:24:08;20.75;;;7.93;;
34741;SDS011;20968;42.696;23.360;2023-01-31T12:41:25;6.80;;;4.13;;
34741;SDS011;20968;42.696;23.360;2023-01-31T13:00:48;6.07;;;4.30;;
34741;SDS011;20968;42.696;23.360;2023-01-31T13:08:39;10.25;;;6.68;;
34741;SDS011;20968;42.696;23.360;2023-01-31T13:11:12;16.40;;;8.23;;
34741;SDS011;20968;42.696;23.360;2023-01-31T13:16:24;7.63;;;4.43;;
34741;SDS011;20968;42.696;23.360;2023-01-31T13:18:54;7.90;;;5.22;;
34741;SDS011;20968;42.696;23.360;2023-01-31T13:21:23;27.67;;;10.05;;
34741;SDS011;20968;42.696;23.360;2023-01-31T13:24:01;28.33;;;9.13;;
34741;SDS011;20968;42.696;23.360;2023-01-31T13:26:34;41.72;;;13.40;;
34741;SDS011;20968;42.696;23.360;2023-01-31T13:29:09;18.55;;;6.40;;
34741;SDS011;20968;42.696;23.360;2023-01-31T13:34:22;32.80;;;13.52;;
34741;SDS011;20968;42.696;23.360;2023-01-31T13:36:55;30.55;;;13.10;;
34741;SDS011;20968;42.696;23.360;2023-01-31T13:42:04;18.17;;;7.32;;
34741;SDS011;20968;42.696;23.360;2023-01-31T13:44:30;13.88;;;6.50;;
34741;SDS011;20968;42.696;23.360;2023-01-31T13:49:24;24.60;;;8.82;;
34741;SDS011;20968;42.696;23.360;2023-01-31T13:52:54;14.88;;;7.72;;
34741;SDS011;20968;42.696;23.360;2023-01-31T13:55:00;23.58;;;8.07;;
34741;SDS011;20968;42.696;23.360;2023-01-31T13:57:33;16.50;;;5.70;;
34741;SDS011;20968;42.696;23.360;2023-01-31T14:03:05;15.85;;;7.93;;
34741;SDS011;20968;42.696;23.360;2023-01-31T14:10:56;16.63;;;6.28;;
34741;SDS011;20968;42.696;23.360;2023-01-31T14:15:55;36.40;;;12.85;;
34741;SDS011;20968;42.696;23.360;2023-01-31T14:18:36;24.05;;;8.63;;
34741;SDS011;20968;42.696;23.360;2023-01-31T14:24:10;15.70;;;6.97;;
34741;SDS011;20968;42.696;23.360;2023-01-31T14:29:18;21.42;;;8.80;;
34741;SDS011;20968;42.696;23.360;2023-01-31T14:31:47;12.70;;;5.63;;
34741;SDS011;20968;42.696;23.360;2023-01-31T14:34:18;10.63;;;4.47;;
34741;SDS011;20968;42.696;23.360;2023-01-31T14:37:20;11.35;;;4.93;;
34741;SDS011;20968;42.696;23.360;2023-01-31T14:40:15;13.07;;;6.30;;
34741;SDS011;20968;42.696;23.360;2023-01-31T14:51:06;62.65;;;22.27;;
34741;SDS011;20968;42.696;23.360;2023-01-31T14:59:01;14.88;;;6.53;;
34741;SDS011;20968;42.696;23.360;2023-01-31T15:01:32;12.00;;;7.03;;
34741;SDS011;20968;42.696;23.360;2023-01-31T15:03:59;15.35;;;6.38;;
34741;SDS011;20968;42.696;23.360;2023-01-31T15:06:34;29.13;;;9.75;;
34741;SDS011;20968;42.696;23.360;2023-01-31T15:11:46;12.70;;;6.97;;
34741;SDS011;20968;42.696;23.360;2023-01-31T15:17:16;21.88;;;7.75;;
34741;SDS011;20968;42.696;23.360;2023-01-31T15:19:52;19.88;;;8.40;;
34741;SDS011;20968;42.696;23.360;2023-01-31T15:22:23;19.88;;;8.98;;
34741;SDS011;20968;42.696;23.360;2023-01-31T15:24:51;20.55;;;7.82;;
34741;SDS011;20968;42.696;23.360;2023-01-31T15:27:28;10.85;;;7.13;;
34741;SDS011;20968;42.696;23.360;2023-01-31T15:32:23;21.27;;;8.73;;
34741;SDS011;20968;42.696;23.360;2023-01-31T15:35:05;23.05;;;8.93;;
34741;SDS011;20968;42.696;23.360;2023-01-31T15:37:32;39.78;;;16.77;;
34741;SDS011;20968;42.696;23.360;2023-01-31T15:42:33;28.90;;;10.95;;
34741;SDS011;20968;42.696;23.360;2023-01-31T15:47:55;26.05;;;12.93;;
34741;SDS011;20968;42.696;23.360;2023-01-31T15:50:57;45.22;;;19.17;;
34741;SDS011;20968;42.696;23.360;2023-01-31T15:53:24;21.95;;;10.00;;
34741;SDS011;20968;42.696;23.360;2023-01-31T15:55:52;10.95;;;6.82;;
34741;SDS011;20968;42.696;23.360;2023-01-31T15:58:21;26.58;;;11.48;;
34741;SDS011;20968;42.696;23.360;2023-01-31T16:00:58;11.88;;;6.65;;
34741;SDS011;20968;42.696;23.360;2023-01-31T16:03:38;30.15;;;10.75;;
34741;SDS011;20968;42.696;23.360;2023-01-31T16:06:06;43.45;;;15.75;;
34741;SDS011;20968;42.696;23.360;2023-01-31T16:08:49;38.35;;;13.05;;
34741;SDS011;20968;42.696;23.360;2023-01-31T16:11:16;26.02;;;11.27;;
34741;SDS011;20968;42.696;23.360;2023-01-31T16:13:42;11.20;;;6.85;;
34741;SDS011;20968;42.696;23.360;2023-01-31T16:16:10;14.63;;;7.68;;
34741;SDS011;20968;42.696;23.360;2023-01-31T16:18:38;19.90;;;9.88;;
34741;SDS011;20968;42.696;23.360;2023-01-31T16:21:40;20.83;;;8.50;;
34741;SDS011;20968;42.696;23.360;2023-01-31T16:24:11;16.70;;;7.15;;
34741;SDS011;20968;42.696;23.360;2023-01-31T16:26:57;22.52;;;8.50;;
34741;SDS011;20968;42.696;23.360;2023-01-31T16:30:12;23.73;;;8.30;;
34741;SDS011;20968;42.696;23.360;2023-01-31T16:32:33;11.10;;;7.25;;
34741;SDS011;20968;42.696;23.360;2023-01-31T16:35:05;19.13;;;8.90;;
34741;SDS011;20968;42.696;23.360;2023-01-31T16:40:21;17.25;;;8.13;;
34741;SDS011;20968;42.696;23.360;2023-01-31T16:43:08;16.67;;;6.30;;
34741;SDS011;20968;42.696;23.360;2023-01-31T16:45:37;20.73;;;6.90;;
34741;SDS011;20968;42.696;23.360;2023-01-31T16:50:52;13.68;;;6.72;;
34741;SDS011;20968;42.696;23.360;2023-01-31T16:53:24;8.88;;;5.20;;
34741;SDS011;20968;42.696;23.360;2023-01-31T16:56:35;8.82;;;5.28;;
34741;SDS011;20968;42.696;23.360;2023-01-31T17:01:12;11.77;;;5.35;;
34741;SDS011;20968;42.696;23.360;2023-01-31T17:03:40;8.07;;;5.43;;
34741;SDS011;20968;42.696;23.360;2023-01-31T17:06:06;7.47;;;4.97;;
34741;SDS011;20968;42.696;23.360;2023-01-31T17:08:35;13.23;;;5.97;;
34741;SDS011;20968;42.696;23.360;2023-01-31T17:11:04;15.63;;;5.40;;
34741;SDS011;20968;42.696;23.360;2023-01-31T17:13:32;9.38;;;5.53;;
34741;SDS011;20968;42.696;23.360;2023-01-31T17:15:57;9.10;;;5.53;;
34741;SDS011;20968;42.696;23.360;2023-01-31T17:18:25;18.13;;;7.55;;
34741;SDS011;20968;42.696;23.360;2023-01-31T17:20:50;10.30;;;4.60;;
34741;SDS011;20968;42.696;23.360;2023-01-31T17:23:25;10.02;;;5.20;;
34741;SDS011;20968;42.696;23.360;2023-01-31T17:25:50;14.07;;;4.60;;
34741;SDS011;20968;42.696;23.360;2023-01-31T17:28:16;10.98;;;5.53;;
34741;SDS011;20968;42.696;23.360;2023-01-31T17:30:41;24.33;;;7.57;;